Time;durP1;ratioP1;P1;durP2;ratioP2;P2;SDS_P1;SDS_P2;PMS_P1;PMS_P2;Temp;Humidity;BMP_temperature;BMP_pressure;BME280_temperature;BME280_humidity;BME280_pressure;Samples;Min_cycle;Max_cycle;Signal;HPM_P1;HPM_P2
2020/12/06 00:01:36;;;;;;;54.67;23.10;;;2.50;99.90;;;;;;4991163;28;20574;-68
2020/12/06 00:04:05;;;;;;;42.90;21.57;;;2.50;99.90;;;;;;4992354;28;20046;-66
2020/12/06 00:06:32;;;;;;;44.90;20.97;;;2.40;99.90;;;;;;4998805;28;20078;-68
2020/12/06 00:08:59;;;;;;;48.13;21.30;;;2.30;99.90;;;;;;5008376;28;20113;-63
2020/12/06 00:11:26;;;;;;;48.80;21.50;;;2.30;99.90;;;;;;5008461;28;20125;-66
2020/12/06 00:13:52;;;;;;;49.23;20.67;;;2.40;99.90;;;;;;5006216;28;20769;-66
2020/12/06 00:16:20;;;;;;;43.57;20.37;;;2.40;99.90;;;;;;5005970;28;20046;-63
2020/12/06 00:18:48;;;;;;;46.13;20.70;;;2.40;99.90;;;;;;5008186;28;20290;-63
2020/12/06 00:21:18;;;;;;;45.30;20.57;;;2.40;99.90;;;;;;5007579;28;20121;-67
2020/12/06 00:23:45;;;;;;;47.37;20.80;;;2.50;99.90;;;;;;5007463;28;20077;-68
2020/12/06 00:26:14;;;;;;;47.63;20.57;;;2.50;99.90;;;;;;5008977;28;20042;-63
2020/12/06 00:28:40;;;;;;;46.50;19.67;;;2.50;99.90;;;;;;5006177;28;20070;-63
2020/12/06 00:31:07;;;;;;;44.27;19.07;;;2.50;99.90;;;;;;5003665;28;20050;-63
2020/12/06 00:33:34;;;;;;;45.10;20.20;;;2.50;99.90;;;;;;5007529;28;20054;-63
2020/12/06 00:36:01;;;;;;;43.17;20.07;;;2.50;99.90;;;;;;5009987;28;20054;-67
2020/12/06 00:38:29;;;;;;;43.30;20.07;;;2.60;99.90;;;;;;5008441;28;20054;-67
2020/12/06 00:40:56;;;;;;;41.83;19.57;;;2.60;99.90;;;;;;5008449;28;20072;-63
2020/12/06 00:43:22;;;;;;;43.00;20.33;;;2.50;99.90;;;;;;5010954;28;20061;-62
2020/12/06 00:45:49;;;;;;;42.70;20.00;;;2.50;99.90;;;;;;5009492;28;20062;-63
2020/12/06 00:48:16;;;;;;;46.87;20.03;;;2.50;99.90;;;;;;5010053;28;20065;-63
2020/12/06 00:50:43;;;;;;;46.53;19.93;;;2.50;99.90;;;;;;5007976;28;20114;-63
2020/12/06 00:53:10;;;;;;;45.37;20.50;;;2.60;99.90;;;;;;5008443;28;20061;-66
2020/12/06 00:55:38;;;;;;;49.80;20.83;;;2.60;99.90;;;;;;5011715;28;20105;-65
2020/12/06 00:58:04;;;;;;;45.00;20.67;;;2.70;99.90;;;;;;4998985;28;20487;-63
2020/12/06 01:00:31;;;;;;;43.53;19.40;;;2.70;99.90;;;;;;4991586;28;20057;-67
2020/12/06 01:02:58;;;;;;;42.00;19.50;;;2.80;99.90;;;;;;4992440;28;20054;-63
2020/12/06 01:05:25;;;;;;;46.27;20.80;;;2.70;99.90;;;;;;4991579;28;20499;-68
2020/12/06 01:07:52;;;;;;;40.63;19.20;;;2.80;99.90;;;;;;4988816;28;20058;-65
2020/12/06 01:10:19;;;;;;;45.63;21.37;;;2.70;99.90;;;;;;4991333;28;20058;-65
2020/12/06 01:12:47;;;;;;;46.23;20.50;;;2.70;99.90;;;;;;4989987;28;20046;-62
2020/12/06 01:15:14;;;;;;;46.27;19.63;;;2.80;99.90;;;;;;4991623;28;20133;-68
2020/12/06 01:17:40;;;;;;;43.97;19.50;;;2.80;99.90;;;;;;4997288;28;20043;-66
2020/12/06 01:20:08;;;;;;;47.70;20.77;;;2.70;99.90;;;;;;4997411;28;20503;-68
2020/12/06 01:22:35;;;;;;;44.63;19.77;;;2.70;99.90;;;;;;4994161;28;20105;-66
2020/12/06 01:25:03;;;;;;;44.17;19.97;;;2.60;99.90;;;;;;4986643;28;20054;-65
2020/12/06 01:27:30;;;;;;;42.97;20.30;;;2.70;99.90;;;;;;4987129;28;20046;-63
2020/12/06 01:29:57;;;;;;;44.63;19.50;;;2.70;99.90;;;;;;4987541;28;20050;-63
2020/12/06 01:32:24;;;;;;;40.43;20.97;;;2.70;99.90;;;;;;4988898;28;20525;-69
2020/12/06 01:34:51;;;;;;;41.50;19.37;;;2.70;99.90;;;;;;4988961;28;20096;-66
2020/12/06 01:37:18;;;;;;;48.00;20.70;;;2.70;99.90;;;;;;4985300;28;20054;-65
2020/12/06 01:39:44;;;;;;;45.27;20.03;;;2.60;99.90;;;;;;4981476;28;20046;-66
2020/12/06 01:42:11;;;;;;;49.10;21.50;;;2.60;99.90;;;;;;4986339;28;20046;-66
2020/12/06 01:44:41;;;;;;;44.13;19.40;;;2.60;99.90;;;;;;4991692;28;20050;-66
2020/12/06 01:47:10;;;;;;;50.13;21.07;;;2.60;99.90;;;;;;4993902;28;20054;-66
2020/12/06 01:49:39;;;;;;;44.37;19.83;;;2.60;99.90;;;;;;4995588;28;20058;-65
2020/12/06 01:52:07;;;;;;;50.13;21.33;;;2.60;99.90;;;;;;4992925;28;20293;-66
2020/12/06 01:54:35;;;;;;;48.57;22.17;;;2.60;99.90;;;;;;4992933;28;20050;-63
2020/12/06 01:57:03;;;;;;;48.50;21.43;;;2.60;99.90;;;;;;4993159;28;20157;-63
2020/12/06 01:59:29;;;;;;;44.97;21.80;;;2.60;99.90;;;;;;4992676;28;20058;-65
2020/12/06 02:01:59;;;;;;;52.37;22.47;;;2.60;99.90;;;;;;4993080;28;20054;-65
2020/12/06 02:04:27;;;;;;;52.47;22.50;;;2.60;99.90;;;;;;4992431;28;20101;-65
2020/12/06 02:06:55;;;;;;;44.97;20.17;;;2.60;99.90;;;;;;4993601;28;20061;-65
2020/12/06 02:09:22;;;;;;;46.27;21.47;;;2.60;99.90;;;;;;4991599;28;20049;-66
2020/12/06 02:11:49;;;;;;;46.50;20.20;;;2.60;99.90;;;;;;4992558;28;20050;-62
2020/12/06 02:14:16;;;;;;;47.40;19.87;;;2.60;99.90;;;;;;4993343;28;20521;-63
2020/12/06 02:16:43;;;;;;;50.10;21.13;;;2.60;99.90;;;;;;4992442;28;20049;-64
2020/12/06 02:19:11;;;;;;;50.67;20.50;;;2.60;99.90;;;;;;4993249;28;20054;-63
2020/12/06 02:21:40;;;;;;;52.07;21.87;;;2.60;99.90;;;;;;4991961;28;20052;-66
2020/12/06 02:24:07;;;;;;;50.13;22.27;;;2.60;99.90;;;;;;4992648;28;20049;-65
2020/12/06 02:26:41;;;;;;;46.10;21.50;;;2.60;99.90;;;;;;4992764;28;20061;-63
2020/12/06 02:29:08;;;;;;;51.27;22.23;;;2.60;99.90;;;;;;4993562;28;20208;-63
2020/12/06 02:31:35;;;;;;;50.27;22.03;;;2.60;99.90;;;;;;4992054;28;20402;-66
2020/12/06 02:34:02;;;;;;;52.23;22.00;;;2.50;99.90;;;;;;4993161;28;20054;-63
2020/12/06 02:36:29;;;;;;;50.13;21.47;;;2.50;99.90;;;;;;4992653;28;20049;-63
2020/12/06 02:38:56;;;;;;;49.00;23.30;;;2.60;99.90;;;;;;4991597;28;20396;-69
2020/12/06 02:41:23;;;;;;;50.00;21.80;;;2.60;99.90;;;;;;4992440;28;20054;-65
2020/12/06 02:43:50;;;;;;;49.37;21.20;;;2.60;99.90;;;;;;4991954;28;20050;-66
2020/12/06 02:46:16;;;;;;;53.57;22.53;;;2.60;99.90;;;;;;4993063;28;20137;-66
2020/12/06 02:48:43;;;;;;;51.63;22.47;;;2.50;99.90;;;;;;4992917;28;20503;-65
2020/12/06 02:51:10;;;;;;;51.73;23.73;;;2.50;99.90;;;;;;4991631;28;20046;-66
2020/12/06 02:53:36;;;;;;;56.50;22.07;;;2.50;99.90;;;;;;4993027;28;20038;-63
2020/12/06 02:56:04;;;;;;;53.37;23.33;;;2.50;99.90;;;;;;4990782;28;20050;-63
2020/12/06 02:58:31;;;;;;;52.10;21.90;;;2.40;99.90;;;;;;4990128;28;20057;-65
2020/12/06 03:00:57;;;;;;;47.90;21.63;;;2.40;99.90;;;;;;4991671;28;20108;-66
2020/12/06 03:03:24;;;;;;;59.43;23.40;;;2.40;99.90;;;;;;4992325;28;20066;-62
2020/12/06 03:05:50;;;;;;;50.50;23.60;;;2.40;99.90;;;;;;4989822;28;20053;-65
2020/12/06 03:08:18;;;;;;;53.20;21.97;;;2.40;99.90;;;;;;4988789;28;20050;-63
2020/12/06 03:10:44;;;;;;;54.87;22.80;;;2.50;99.90;;;;;;4989008;28;20046;-67
2020/12/06 03:13:12;;;;;;;49.33;22.07;;;2.50;99.90;;;;;;4989131;28;20521;-65
2020/12/06 03:15:39;;;;;;;48.37;21.47;;;2.50;99.90;;;;;;4992548;28;20054;-66
2020/12/06 03:18:05;;;;;;;50.27;23.03;;;2.40;99.90;;;;;;4991408;28;20042;-63
2020/12/06 03:20:33;;;;;;;49.37;22.53;;;2.40;99.90;;;;;;4991650;28;20519;-69
2020/12/06 03:22:59;;;;;;;54.70;22.73;;;2.40;99.90;;;;;;4992248;28;20054;-65
2020/12/06 03:25:26;;;;;;;50.87;21.10;;;2.40;99.90;;;;;;4990978;28;20046;-65
2020/12/06 03:27:53;;;;;;;52.33;23.50;;;2.40;99.90;;;;;;4992424;28;20054;-63
2020/12/06 03:30:24;;;;;;;54.07;23.40;;;2.40;99.90;;;;;;4991035;28;20047;-63
2020/12/06 03:32:51;;;;;;;49.53;22.63;;;2.50;99.90;;;;;;4986668;28;20055;-63
2020/12/06 03:35:17;;;;;;;50.13;22.80;;;2.50;99.90;;;;;;4992176;28;20046;-63
2020/12/06 03:37:44;;;;;;;52.40;22.37;;;2.50;99.90;;;;;;4990681;28;20065;-63
2020/12/06 03:40:11;;;;;;;53.67;22.57;;;2.40;99.90;;;;;;4989354;28;20073;-63
2020/12/06 03:42:37;;;;;;;50.33;22.73;;;2.50;99.90;;;;;;4991188;28;20054;-63
2020/12/06 03:45:04;;;;;;;56.37;24.10;;;2.50;99.90;;;;;;4991829;28;20157;-65
2020/12/06 03:47:32;;;;;;;54.10;22.73;;;2.50;99.90;;;;;;4991231;28;20050;-67
2020/12/06 03:49:59;;;;;;;53.70;24.33;;;2.60;99.90;;;;;;4991425;28;20058;-65
2020/12/06 03:52:26;;;;;;;54.97;24.17;;;2.60;99.90;;;;;;4991381;28;20057;-68
2020/12/06 03:54:52;;;;;;;48.03;22.73;;;2.50;99.90;;;;;;4990898;28;20050;-67
2020/12/06 03:57:19;;;;;;;56.17;23.27;;;2.50;99.90;;;;;;4991423;28;20074;-65
2020/12/06 03:59:46;;;;;;;51.80;24.10;;;2.60;99.90;;;;;;4990925;28;20046;-66
2020/12/06 04:02:13;;;;;;;51.27;23.23;;;2.80;99.90;;;;;;4992636;28;20047;-65
2020/12/06 04:04:41;;;;;;;52.03;23.40;;;2.70;99.90;;;;;;4994615;28;20523;-66
2020/12/06 04:07:08;;;;;;;49.33;23.13;;;2.60;99.90;;;;;;4992828;28;20046;-67
2020/12/06 04:09:34;;;;;;;55.83;24.43;;;2.50;99.90;;;;;;4993644;28;20053;-65
2020/12/06 04:12:01;;;;;;;53.67;23.57;;;2.50;99.90;;;;;;4993152;28;20057;-63
2020/12/06 04:14:28;;;;;;;50.80;22.13;;;2.80;99.90;;;;;;4994167;28;20081;-64
2020/12/06 04:16:54;;;;;;;58.93;24.30;;;2.70;99.90;;;;;;4992651;28;20053;-63
2020/12/06 04:19:21;;;;;;;53.27;24.30;;;2.50;99.90;;;;;;4993347;28;20416;-63
2020/12/06 04:21:49;;;;;;;50.37;23.03;;;2.50;99.90;;;;;;4990216;28;20050;-68
2020/12/06 04:24:15;;;;;;;52.17;24.10;;;2.50;99.90;;;;;;4987228;28;20057;-65
2020/12/06 04:26:42;;;;;;;53.33;24.67;;;2.70;99.90;;;;;;4989287;28;20089;-67
2020/12/06 04:29:09;;;;;;;52.53;23.80;;;2.80;99.90;;;;;;4988738;28;20053;-66
2020/12/06 04:31:38;;;;;;;53.37;22.77;;;2.70;99.90;;;;;;4990291;28;20630;-66
2020/12/06 04:34:05;;;;;;;50.43;22.67;;;2.60;99.90;;;;;;4989896;28;20058;-66
2020/12/06 04:36:32;;;;;;;52.30;23.40;;;2.60;99.90;;;;;;4988228;28;20086;-62
2020/12/06 04:38:59;;;;;;;56.40;25.20;;;2.50;99.90;;;;;;4988842;28;20062;-63
2020/12/06 04:41:32;;;;;;;51.73;23.53;;;2.50;99.90;;;;;;4989893;28;20046;-63
2020/12/06 04:43:59;;;;;;;55.07;24.10;;;2.50;99.90;;;;;;4990664;28;20050;-63
2020/12/06 04:46:28;;;;;;;59.10;25.00;;;2.40;99.90;;;;;;4989422;28;20507;-63
2020/12/06 04:49:04;;;;;;;50.37;23.50;;;2.40;99.90;;;;;;4988814;28;20050;-68
2020/12/06 04:51:40;;;;;;;59.28;25.35;;;2.50;99.90;;;;;;4989656;28;20042;-66
2020/12/06 04:54:08;;;;;;;57.22;23.63;;;2.50;99.90;;;;;;4982230;28;20081;-66
2020/12/06 04:56:38;;;;;;;56.07;23.47;;;2.40;99.90;;;;;;4990340;28;20050;-66
2020/12/06 04:59:06;;;;;;;56.97;25.17;;;2.40;99.90;;;;;;4986860;28;20129;-63
2020/12/06 05:01:34;;;;;;;52.00;23.63;;;2.50;99.90;;;;;;4990499;28;20523;-63
2020/12/06 05:04:09;;;;;;;60.50;24.83;;;2.60;99.90;;;;;;5002008;28;20056;-67
2020/12/06 05:06:38;;;;;;;57.77;24.77;;;2.60;99.90;;;;;;5003369;28;20046;-66
2020/12/06 05:09:10;;;;;;;58.27;26.17;;;2.50;99.90;;;;;;5001446;28;20050;-67
2020/12/06 05:11:37;;;;;;;56.40;24.30;;;2.40;99.90;;;;;;4990696;28;20068;-63
2020/12/06 05:14:05;;;;;;;57.20;25.17;;;2.50;99.90;;;;;;4990920;28;20058;-63
2020/12/06 05:16:34;;;;;;;57.03;25.13;;;2.40;99.90;;;;;;4990000;28;20100;-63
2020/12/06 05:19:01;;;;;;;60.47;25.67;;;2.40;99.90;;;;;;4990464;28;20054;-63
2020/12/06 05:21:34;;;;;;;57.60;25.20;;;2.40;99.90;;;;;;4989512;28;20053;-63
2020/12/06 05:24:02;;;;;;;56.47;24.73;;;2.50;99.90;;;;;;4990615;28;20054;-68
2020/12/06 05:26:30;;;;;;;61.20;25.93;;;2.50;99.90;;;;;;4989675;28;20113;-65
2020/12/06 05:28:57;;;;;;;56.13;25.00;;;2.60;99.90;;;;;;4990787;28;20410;-68
2020/12/06 05:31:25;;;;;;;58.23;26.00;;;2.50;99.90;;;;;;4989554;28;20046;-66
2020/12/06 05:33:52;;;;;;;60.63;26.17;;;2.70;99.90;;;;;;4989488;28;20081;-66
2020/12/06 05:36:19;;;;;;;60.73;27.07;;;2.70;99.90;;;;;;4989959;28;20050;-65
2020/12/06 05:38:46;;;;;;;61.83;26.27;;;2.50;99.90;;;;;;4988889;28;20057;-68
2020/12/06 05:41:12;;;;;;;60.83;26.93;;;2.50;99.90;;;;;;4990137;28;20538;-66
2020/12/06 05:43:40;;;;;;;58.50;26.53;;;2.40;99.90;;;;;;4990699;28;20051;-66
2020/12/06 05:46:08;;;;;;;56.67;25.63;;;2.50;99.90;;;;;;4989427;28;20051;-66
2020/12/06 05:48:35;;;;;;;59.17;26.23;;;2.50;99.90;;;;;;4990744;28;20058;-66
2020/12/06 05:51:02;;;;;;;56.30;24.63;;;2.50;99.90;;;;;;4988742;28;20047;-63
2020/12/06 05:53:30;;;;;;;59.13;26.30;;;2.40;99.90;;;;;;4990470;28;20050;-63
2020/12/06 05:56:04;;;;;;;59.67;25.63;;;2.30;99.90;;;;;;4989957;28;20050;-62
2020/12/06 05:58:33;;;;;;;58.63;26.17;;;2.30;99.90;;;;;;4989717;28;20055;-64
2020/12/06 06:01:01;;;;;;;56.80;27.43;;;2.30;99.90;;;;;;4989731;28;20078;-63
2020/12/06 06:03:34;;;;;;;65.33;26.67;;;2.30;99.90;;;;;;4989164;28;20054;-63
2020/12/06 06:06:02;;;;;;;61.97;26.93;;;2.30;99.90;;;;;;4990279;28;20042;-63
2020/12/06 06:08:29;;;;;;;59.97;27.80;;;2.30;99.90;;;;;;4989240;28;20069;-63
2020/12/06 06:11:30;;;;;;;59.03;25.97;;;2.50;99.90;;;;;;4989761;28;20050;-63
2020/12/06 06:13:59;;;;;;;57.53;26.17;;;2.40;99.90;;;;;;4984102;28;20058;-63
2020/12/06 06:16:28;;;;;;;66.37;28.60;;;2.40;99.90;;;;;;4989802;28;20042;-63
2020/12/06 06:18:56;;;;;;;59.07;26.40;;;2.40;99.90;;;;;;4990068;28;20050;-63
2020/12/06 06:21:26;;;;;;;58.60;24.97;;;2.50;99.90;;;;;;4988057;28;20419;-64
2020/12/06 06:23:55;;;;;;;68.73;29.27;;;2.50;99.90;;;;;;4990158;28;20434;-63
2020/12/06 06:26:26;;;;;;;57.37;24.53;;;2.50;99.90;;;;;;4989110;28;20054;-65
2020/12/06 06:28:53;;;;;;;62.23;25.90;;;2.40;99.90;;;;;;4989712;28;20062;-66
2020/12/06 06:31:21;;;;;;;62.73;27.47;;;2.30;99.90;;;;;;4992019;28;20808;-65
2020/12/06 06:33:49;;;;;;;58.37;26.07;;;2.30;99.90;;;;;;4993436;28;20438;-65
2020/12/06 06:36:21;;;;;;;65.77;28.30;;;2.30;99.90;;;;;;4993606;28;20517;-65
2020/12/06 06:38:48;;;;;;;68.30;28.57;;;2.30;99.90;;;;;;4988916;28;20097;-63
2020/12/06 06:41:14;;;;;;;61.17;26.70;;;2.30;99.90;;;;;;4973286;28;20238;-65
2020/12/06 06:43:43;;;;;;;63.00;27.13;;;2.30;99.90;;;;;;4973093;28;20054;-66
2020/12/06 06:46:11;;;;;;;61.63;26.53;;;2.30;99.90;;;;;;4974197;28;20050;-66
2020/12/06 06:48:38;;;;;;;63.80;27.77;;;2.30;99.90;;;;;;4973602;28;20054;-69
2020/12/06 06:51:06;;;;;;;57.53;26.03;;;2.20;99.90;;;;;;4972984;28;20518;-63
2020/12/06 06:53:33;;;;;;;70.97;28.57;;;2.20;99.90;;;;;;4973587;28;20051;-63
2020/12/06 06:56:01;;;;;;;63.53;27.67;;;2.20;99.90;;;;;;4972670;28;20055;-63
2020/12/06 06:58:30;;;;;;;67.10;27.63;;;2.10;99.90;;;;;;4973211;28;20088;-66
2020/12/06 07:01:21;;;;;;;62.33;28.10;;;2.20;99.90;;;;;;4972416;28;20093;-68
2020/12/06 07:03:49;;;;;;;63.10;27.73;;;2.20;99.90;;;;;;4954531;28;20055;-67
2020/12/06 07:06:47;;;;;;;63.63;26.67;;;2.20;99.90;;;;;;4973345;28;20061;-63
2020/12/06 07:09:16;;;;;;;67.47;28.93;;;2.30;99.90;;;;;;4966364;28;20055;-65
2020/12/06 07:11:44;;;;;;;66.90;27.10;;;2.30;99.90;;;;;;4972910;28;20510;-65
2020/12/06 07:14:10;;;;;;;66.50;27.70;;;2.20;99.90;;;;;;4971813;28;20570;-66
2020/12/06 07:16:37;;;;;;;67.50;27.93;;;2.20;99.90;;;;;;4993010;28;20796;-65
2020/12/06 07:19:04;;;;;;;60.43;26.07;;;2.20;99.90;;;;;;4991964;28;20053;-66
2020/12/06 07:21:35;;;;;;;74.03;29.10;;;2.20;99.90;;;;;;4993318;28;20051;-65
2020/12/06 07:24:04;;;;;;;70.83;28.87;;;2.10;99.90;;;;;;4993228;28;20049;-66
2020/12/06 07:26:32;;;;;;;64.03;28.67;;;2.10;99.90;;;;;;4993016;28;20522;-66
2020/12/06 07:28:59;;;;;;;64.70;27.83;;;2.10;99.90;;;;;;4991815;28;20055;-65
2020/12/06 07:31:26;;;;;;;67.63;29.30;;;2.10;99.90;;;;;;4991037;28;20053;-63
2020/12/06 07:33:53;;;;;;;75.17;29.00;;;2.20;99.90;;;;;;4991993;28;20057;-66
2020/12/06 07:36:20;;;;;;;73.33;30.03;;;2.20;99.90;;;;;;4991274;28;20050;-63
2020/12/06 07:38:46;;;;;;;70.20;29.07;;;2.20;99.90;;;;;;4991955;28;20055;-63
2020/12/06 07:41:14;;;;;;;69.63;31.13;;;2.20;99.90;;;;;;4991402;28;20051;-63
2020/12/06 07:43:41;;;;;;;63.43;27.97;;;2.20;99.90;;;;;;4991277;28;20056;-63
2020/12/06 07:46:15;;;;;;;74.70;29.73;;;2.20;99.90;;;;;;4992729;28;20119;-63
2020/12/06 07:48:42;;;;;;;74.37;29.83;;;2.20;99.90;;;;;;4992006;28;20361;-63
2020/12/06 07:51:09;;;;;;;72.30;29.67;;;2.30;99.90;;;;;;4991660;28;20054;-66
2020/12/06 07:53:49;;;;;;;76.77;29.90;;;2.30;99.90;;;;;;4990977;28;20053;-66
2020/12/06 07:56:22;;;;;;;66.87;30.00;;;2.30;99.90;;;;;;4992051;28;20104;-65
2020/12/06 07:59:08;;;;;;;64.70;28.23;;;2.30;99.90;;;;;;4990943;28;20450;-69
2020/12/06 08:01:35;;;;;;;63.73;28.10;;;2.30;99.90;;;;;;4991478;28;20054;-68
2020/12/06 08:04:03;;;;;;;69.83;28.17;;;2.30;99.90;;;;;;4992004;28;20093;-65
2020/12/06 08:06:34;;;;;;;69.20;28.00;;;2.30;99.90;;;;;;4990284;28;20076;-66
2020/12/06 08:09:03;;;;;;;73.90;28.70;;;2.30;99.90;;;;;;4991524;28;20053;-69
2020/12/06 08:11:35;;;;;;;66.57;26.83;;;2.30;99.90;;;;;;4990360;28;20090;-66
2020/12/06 08:14:02;;;;;;;70.43;29.37;;;2.30;99.90;;;;;;4991608;28;20499;-66
2020/12/06 08:16:28;;;;;;;64.67;27.67;;;2.30;99.90;;;;;;4990237;28;20046;-67
2020/12/06 08:19:02;;;;;;;74.07;28.77;;;2.30;99.90;;;;;;4991005;28;20050;-66
2020/12/06 08:21:41;;;;;;;66.60;30.10;;;2.30;99.90;;;;;;4990471;28;20061;-68
2020/12/06 08:24:18;;;;;;;65.40;28.73;;;2.30;99.90;;;;;;4991152;28;20050;-66
2020/12/06 08:26:46;;;;;;;66.68;29.30;;;2.50;99.90;;;;;;4991061;28;20459;-66
2020/12/06 08:29:13;;;;;;;71.13;28.60;;;2.60;99.90;;;;;;4990063;28;20050;-66
2020/12/06 08:31:45;;;;;;;71.87;29.60;;;2.50;99.90;;;;;;4972143;28;20046;-66
2020/12/06 08:34:13;;;;;;;68.47;28.47;;;2.50;99.90;;;;;;4971727;28;20150;-63
2020/12/06 08:36:40;;;;;;;66.27;27.77;;;2.50;99.90;;;;;;4989022;28;20622;-63
2020/12/06 08:39:17;;;;;;;72.23;30.57;;;2.50;99.90;;;;;;4991908;28;20065;-63
2020/12/06 08:41:45;;;;;;;66.53;29.23;;;2.60;99.90;;;;;;4989608;28;20057;-63
2020/12/06 08:44:15;;;;;;;71.50;28.37;;;2.60;99.90;;;;;;4990675;28;20155;-65
2020/12/06 08:46:50;;;;;;;61.73;28.60;;;2.70;99.90;;;;;;4990062;28;20395;-63
2020/12/06 08:49:18;;;;;;;73.80;29.40;;;2.80;99.90;;;;;;4991461;28;20081;-63
2020/12/06 08:51:50;;;;;;;66.77;30.87;;;2.80;99.90;;;;;;4989628;28;20061;-65
2020/12/06 08:54:32;;;;;;;76.73;31.73;;;2.90;99.90;;;;;;4990409;28;20422;-67
2020/12/06 08:57:08;;;;;;;65.87;30.77;;;3.00;99.90;;;;;;4989207;28;20213;-68
2020/12/06 08:59:37;;;;;;;69.60;29.47;;;2.90;99.90;;;;;;4990831;28;20055;-65
2020/12/06 09:02:04;;;;;;;62.87;29.73;;;3.00;99.90;;;;;;4989998;28;20292;-68
2020/12/06 09:04:33;;;;;;;60.37;29.37;;;3.00;99.90;;;;;;4999641;28;20050;-66
2020/12/06 09:07:00;;;;;;;65.97;28.17;;;3.10;99.90;;;;;;5006176;28;20050;-66
2020/12/06 09:09:26;;;;;;;64.80;29.27;;;3.00;99.90;;;;;;5005531;28;20114;-69
2020/12/06 09:11:53;;;;;;;62.50;28.40;;;3.10;99.90;;;;;;4994410;28;20091;-66
2020/12/06 09:14:21;;;;;;;71.13;30.93;;;3.10;99.90;;;;;;4989156;28;20050;-68
2020/12/06 09:16:48;;;;;;;67.57;28.43;;;3.10;99.90;;;;;;4991028;28;20054;-69
2020/12/06 09:19:15;;;;;;;66.30;29.90;;;3.10;99.90;;;;;;4989917;28;20492;-67
2020/12/06 09:21:42;;;;;;;66.77;29.83;;;3.20;99.90;;;;;;4988745;28;20491;-67
2020/12/06 09:24:08;;;;;;;61.87;28.27;;;3.20;99.90;;;;;;4990582;28;20054;-67
2020/12/06 09:26:35;;;;;;;69.17;31.03;;;3.30;99.90;;;;;;4989322;28;20050;-67
2020/12/06 09:29:02;;;;;;;63.73;31.33;;;3.20;99.90;;;;;;4990461;28;20054;-70
2020/12/06 09:31:30;;;;;;;70.77;31.27;;;3.30;99.90;;;;;;4988929;28;20057;-67
2020/12/06 09:33:57;;;;;;;60.20;29.67;;;3.30;99.90;;;;;;4989853;28;20137;-64
2020/12/06 09:36:24;;;;;;;71.70;32.57;;;3.30;99.90;;;;;;4989840;28;20061;-64
2020/12/06 09:38:50;;;;;;;69.43;32.27;;;3.30;99.90;;;;;;4989252;28;20047;-63
2020/12/06 09:41:17;;;;;;;66.83;30.93;;;3.40;99.90;;;;;;4989865;28;20410;-64
2020/12/06 09:43:45;;;;;;;64.20;30.57;;;3.40;99.90;;;;;;4989421;28;20138;-64
2020/12/06 09:46:14;;;;;;;62.27;29.13;;;3.40;99.90;;;;;;4989498;28;20054;-64
2020/12/06 09:48:42;;;;;;;64.10;30.67;;;3.50;99.90;;;;;;4988391;28;20060;-64
2020/12/06 09:51:09;;;;;;;66.40;30.73;;;3.60;99.90;;;;;;4988752;28;20055;-64
2020/12/06 09:53:36;;;;;;;61.50;28.30;;;3.70;99.90;;;;;;4987652;28;20427;-64
2020/12/06 09:56:03;;;;;;;61.23;30.77;;;3.80;99.90;;;;;;4988998;28;20423;-64
2020/12/06 09:58:30;;;;;;;56.33;27.20;;;3.90;99.90;;;;;;4989742;28;20050;-64
2020/12/06 10:00:56;;;;;;;65.37;29.50;;;3.90;99.90;;;;;;4989117;28;20483;-64
2020/12/06 10:03:23;;;;;;;58.03;30.57;;;3.90;99.90;;;;;;4989757;28;20042;-63
2020/12/06 10:05:51;;;;;;;63.43;30.30;;;3.90;99.90;;;;;;4992358;28;20061;-64
2020/12/06 10:08:18;;;;;;;61.77;31.40;;;4.00;99.90;;;;;;4993375;28;20073;-64
2020/12/06 10:10:44;;;;;;;65.83;29.93;;;4.00;99.90;;;;;;4974554;28;20047;-65
2020/12/06 10:13:11;;;;;;;54.00;27.33;;;4.10;99.90;;;;;;4973673;28;20526;-64
2020/12/06 10:15:39;;;;;;;58.83;29.03;;;4.20;99.90;;;;;;4989503;28;20058;-64
2020/12/06 10:18:06;;;;;;;64.83;29.77;;;4.20;99.90;;;;;;4994590;28;20442;-65
2020/12/06 10:20:33;;;;;;;57.47;28.87;;;4.30;99.90;;;;;;4992315;28;20085;-65
2020/12/06 10:23:00;;;;;;;58.43;30.03;;;4.30;99.90;;;;;;4990969;28;20057;-64
2020/12/06 10:25:27;;;;;;;60.63;30.67;;;4.30;99.90;;;;;;4990404;28;20042;-65
2020/12/06 10:27:54;;;;;;;59.80;29.10;;;4.20;99.90;;;;;;4992126;28;20051;-65
2020/12/06 10:30:20;;;;;;;62.57;31.07;;;4.30;99.90;;;;;;4991567;28;20046;-65
2020/12/06 10:32:47;;;;;;;63.47;31.30;;;4.30;99.90;;;;;;4984613;28;20054;-65
2020/12/06 10:35:14;;;;;;;60.13;28.63;;;4.40;99.90;;;;;;4986099;28;20046;-65
2020/12/06 10:37:43;;;;;;;59.27;29.43;;;4.40;99.90;;;;;;4989059;28;20058;-65
2020/12/06 10:40:11;;;;;;;61.80;29.53;;;4.50;99.90;;;;;;4987211;28;20065;-65
2020/12/06 10:42:38;;;;;;;61.17;29.87;;;4.50;99.90;;;;;;4991541;28;20411;-65
2020/12/06 10:45:05;;;;;;;61.40;30.00;;;4.40;99.90;;;;;;4995480;28;20129;-64
2020/12/06 10:47:32;;;;;;;58.40;30.10;;;4.50;99.90;;;;;;4993402;28;20050;-65
2020/12/06 10:49:58;;;;;;;62.60;28.40;;;4.50;99.90;;;;;;5015088;28;20057;-64
2020/12/06 10:52:25;;;;;;;47.40;24.67;;;4.50;99.90;;;;;;5013479;28;20105;-64
2020/12/06 10:54:52;;;;;;;50.60;24.17;;;4.50;99.90;;;;;;5014031;28;20037;-65
2020/12/06 10:57:20;;;;;;;48.83;24.70;;;4.40;99.90;;;;;;5015661;28;20062;-64
2020/12/06 10:59:47;;;;;;;50.17;22.67;;;4.30;99.90;;;;;;5016920;28;20132;-64
2020/12/06 11:02:13;;;;;;;45.73;24.60;;;4.30;99.90;;;;;;5015215;28;20054;-64
2020/12/06 11:04:40;;;;;;;48.87;24.80;;;4.20;99.90;;;;;;5013923;28;20391;-64
2020/12/06 11:07:07;;;;;;;44.40;23.37;;;4.30;99.90;;;;;;5000035;28;20046;-64
2020/12/06 11:09:34;;;;;;;48.47;25.27;;;4.20;99.90;;;;;;4990673;28;20053;-65
2020/12/06 11:12:00;;;;;;;49.90;24.77;;;4.20;99.90;;;;;;4985514;28;20073;-65
2020/12/06 11:14:28;;;;;;;43.73;23.47;;;4.10;99.90;;;;;;4991358;28;20051;-64
2020/12/06 11:16:56;;;;;;;48.97;24.30;;;4.10;99.90;;;;;;4984087;28;20046;-65
2020/12/06 11:19:22;;;;;;;48.20;24.17;;;4.00;99.90;;;;;;4981549;28;20503;-66
2020/12/06 11:21:52;;;;;;;50.50;23.90;;;4.10;99.90;;;;;;4987062;28;20058;-65
2020/12/06 11:24:19;;;;;;;45.90;22.97;;;4.20;99.90;;;;;;4976168;28;20209;-65
2020/12/06 11:26:46;;;;;;;49.53;24.70;;;4.10;99.90;;;;;;4979587;28;20046;-65
2020/12/06 11:29:13;;;;;;;52.87;23.73;;;4.10;99.90;;;;;;4982095;28;20499;-65
2020/12/06 11:31:40;;;;;;;51.40;23.47;;;4.10;99.90;;;;;;4989171;28;20050;-65
2020/12/06 11:34:07;;;;;;;48.33;22.97;;;4.10;99.90;;;;;;4980738;28;20066;-64
2020/12/06 11:36:34;;;;;;;46.57;22.60;;;4.10;99.90;;;;;;4976254;28;20055;-65
2020/12/06 11:39:00;;;;;;;49.33;23.20;;;4.20;99.90;;;;;;4988004;28;20054;-65
2020/12/06 11:41:28;;;;;;;49.57;25.73;;;4.20;99.90;;;;;;4984074;28;20061;-65
2020/12/06 11:43:55;;;;;;;47.53;24.63;;;4.20;99.90;;;;;;4987175;28;20042;-65
2020/12/06 11:46:21;;;;;;;54.90;26.17;;;4.30;99.90;;;;;;4984729;28;20050;-64
2020/12/06 11:48:50;;;;;;;52.37;24.33;;;4.40;99.90;;;;;;4987438;28;20172;-64
2020/12/06 11:51:19;;;;;;;52.00;23.57;;;4.30;99.90;;;;;;4981493;28;20517;-65
2020/12/06 11:53:45;;;;;;;52.20;25.83;;;4.30;99.90;;;;;;4977353;28;20066;-64
2020/12/06 11:56:13;;;;;;;56.40;24.97;;;4.30;99.90;;;;;;4973064;28;20526;-65
2020/12/06 11:58:40;;;;;;;51.53;23.83;;;4.30;99.90;;;;;;4976301;28;20058;-65
2020/12/06 12:01:07;;;;;;;51.00;24.13;;;4.30;99.90;;;;;;4977208;28;20051;-67
2020/12/06 12:03:34;;;;;;;52.43;24.43;;;4.30;99.90;;;;;;4978075;28;20042;-65
2020/12/06 12:06:02;;;;;;;51.23;24.53;;;4.30;99.90;;;;;;4992734;28;20418;-65
2020/12/06 12:08:29;;;;;;;56.43;25.07;;;4.30;99.90;;;;;;4977345;28;20070;-65
2020/12/06 12:10:59;;;;;;;48.47;23.27;;;4.10;99.90;;;;;;4985312;28;20057;-64
2020/12/06 12:13:26;;;;;;;53.00;24.87;;;4.20;99.90;;;;;;4989683;28;20062;-65
2020/12/06 12:15:53;;;;;;;53.77;24.93;;;4.10;99.90;;;;;;4989570;28;20403;-65
2020/12/06 12:18:20;;;;;;;56.27;24.90;;;4.20;99.90;;;;;;4981697;28;20062;-65
2020/12/06 12:20:49;;;;;;;50.47;24.47;;;4.10;99.90;;;;;;4989487;28;20056;-65
2020/12/06 12:23:20;;;;;;;56.73;26.50;;;4.10;99.90;;;;;;4989541;28;20082;-64
2020/12/06 12:25:47;;;;;;;53.33;26.23;;;4.10;99.90;;;;;;4991636;28;20053;-64
2020/12/06 12:28:13;;;;;;;51.40;23.57;;;4.10;99.90;;;;;;4996598;28;20046;-65
2020/12/06 12:30:41;;;;;;;57.33;26.43;;;4.10;99.90;;;;;;5001006;28;20412;-64
2020/12/06 12:33:08;;;;;;;58.10;26.27;;;4.10;99.90;;;;;;5003512;28;20050;-64
2020/12/06 12:35:35;;;;;;;57.10;26.93;;;4.10;99.90;;;;;;4991223;28;20081;-65
2020/12/06 12:38:02;;;;;;;63.37;28.67;;;4.10;99.90;;;;;;4991589;28;20051;-64
2020/12/06 12:40:29;;;;;;;60.37;27.27;;;4.00;99.90;;;;;;4987826;28;20057;-64